createdAt,value
2022-10-03T00:01:43.322Z,12.41
2022-10-03T00:07:13.526Z,12.41
2022-10-03T00:12:38.020Z,12.48
2022-10-03T00:17:53.418Z,12.54
2022-10-03T00:23:02.816Z,12.51
2022-10-03T00:28:41.791Z,12.37
2022-10-03T00:33:55.267Z,12.26
2022-10-03T00:39:08.621Z,12.21
2022-10-03T00:44:38.659Z,12.16
2022-10-03T00:49:58.864Z,12.04
2022-10-03T00:55:12.414Z,11.91
2022-10-03T01:00:27.702Z,11.96
2022-10-03T01:05:51.876Z,12.10
2022-10-03T01:11:05.968Z,12.23
2022-10-03T01:16:27.455Z,12.31
2022-10-03T01:21:53.741Z,12.33
2022-10-03T01:27:03.434Z,12.37
2022-10-03T01:32:31.335Z,12.37
2022-10-03T01:37:47.244Z,12.40
2022-10-03T01:43:11.854Z,12.34
2022-10-03T01:48:43.851Z,12.34
2022-10-03T01:53:54.491Z,12.34
2022-10-03T01:59:30.915Z,12.39
2022-10-03T02:04:45.581Z,12.36
2022-10-03T02:10:19.187Z,12.39
2022-10-03T02:15:29.798Z,12.42
2022-10-03T02:20:45.481Z,12.41
2022-10-03T02:26:17.601Z,12.39
2022-10-03T02:31:43.838Z,12.42
2022-10-03T02:37:20.440Z,12.47
2022-10-03T02:42:39.081Z,12.46
2022-10-03T02:48:32.105Z,12.40
2022-10-03T02:54:20.262Z,12.34
2022-10-03T02:59:59.323Z,12.30
2022-10-03T03:05:06.725Z,12.20
2022-10-03T03:10:34.466Z,12.25
2022-10-03T03:15:38.816Z,12.21
2022-10-03T03:21:18.118Z,12.19
2022-10-03T03:26:54.961Z,12.18
2022-10-03T03:31:56.598Z,12.19
2022-10-03T03:37:11.009Z,12.18
2022-10-03T03:42:34.779Z,12.18
2022-10-03T03:47:50.466Z,12.16
2022-10-03T03:53:37.094Z,12.21
2022-10-03T03:58:45.113Z,12.21
2022-10-03T04:04:18.256Z,12.26
2022-10-03T04:09:38.609Z,12.25
2022-10-03T04:15:11.378Z,12.18
2022-10-03T04:20:38.397Z,12.19
2022-10-03T04:26:04.970Z,12.20
2022-10-03T04:31:27.854Z,12.15
2022-10-03T04:37:06.046Z,12.17
2022-10-03T04:42:21.283Z,12.19
2022-10-03T04:47:39.197Z,12.19
2022-10-03T04:52:46.668Z,12.16
2022-10-03T04:58:24.891Z,12.17
2022-10-03T05:04:17.666Z,12.14
2022-10-03T05:09:35.932Z,12.09
2022-10-03T05:14:59.738Z,12.11
2022-10-03T05:20:21.978Z,12.14
2022-10-03T05:25:39.478Z,12.14
2022-10-03T05:30:58.087Z,12.13
2022-10-03T05:36:06.102Z,12.04
2022-10-03T05:41:26.131Z,11.88
2022-10-03T05:46:40.069Z,11.89
2022-10-03T05:52:03.894Z,11.75
2022-10-03T05:57:36.300Z,11.63
2022-10-03T06:02:54.074Z,11.70
2022-10-03T06:08:18.941Z,11.68
2022-10-03T06:13:20.635Z,11.71
2022-10-03T06:18:42.370Z,11.85
2022-10-03T06:24:18.400Z,11.98
2022-10-03T06:29:58.828Z,12.05
2022-10-03T06:35:37.157Z,12.03
2022-10-03T06:40:57.627Z,11.98
2022-10-03T06:46:27.068Z,11.97
2022-10-03T06:51:56.541Z,11.96
2022-10-03T06:57:24.125Z,11.96
2022-10-03T07:02:44.009Z,11.97
2022-10-03T07:08:03.040Z,12.01
2022-10-03T07:13:50.667Z,12.05
2022-10-03T07:19:07.319Z,12.00
2022-10-03T07:24:25.826Z,12.07
2022-10-03T07:29:30.537Z,12.09
2022-10-03T07:35:05.931Z,12.16
2022-10-03T07:40:59.391Z,12.18
2022-10-03T07:46:04.362Z,12.25
2022-10-03T07:51:13.235Z,12.37
2022-10-03T07:56:36.754Z,12.42
2022-10-03T08:02:12.322Z,12.47
2022-10-03T08:07:51.284Z,12.66
2022-10-03T08:12:56.415Z,12.73
2022-10-03T08:18:30.483Z,12.79
2022-10-03T08:23:53.858Z,12.96
2022-10-03T08:29:43.529Z,13.07
2022-10-03T08:35:23.830Z,13.22
2022-10-03T08:40:53.678Z,13.03
2022-10-03T08:45:55.437Z,12.99
2022-10-03T08:51:46.826Z,13.04
2022-10-03T08:56:58.362Z,13.04
2022-10-03T09:02:38.798Z,13.19
2022-10-03T09:08:15.105Z,13.30
2022-10-03T09:13:55.296Z,13.56
2022-10-03T09:19:09.091Z,13.34
2022-10-03T09:24:28.977Z,13.46
2022-10-03T09:30:08.006Z,13.69
2022-10-03T09:35:33.284Z,13.67
2022-10-03T09:40:53.716Z,13.60
2022-10-03T09:45:58.454Z,13.52
2022-10-03T09:51:21.811Z,13.45
2022-10-03T09:56:34.850Z,13.53
2022-10-03T10:01:39.338Z,13.60
2022-10-03T10:07:12.041Z,13.53
2022-10-03T10:12:32.654Z,13.83
2022-10-03T10:18:11.890Z,14.12
2022-10-03T10:23:36.328Z,14.35
2022-10-03T10:29:03.114Z,14.60
2022-10-03T10:34:30.364Z,14.59
2022-10-03T10:39:56.933Z,14.79
2022-10-03T10:45:36.086Z,14.44
2022-10-03T10:51:05.119Z,14.37
2022-10-03T10:56:44.382Z,14.45
2022-10-03T11:01:55.437Z,14.61
2022-10-03T11:07:28.879Z,14.91
2022-10-03T11:12:52.599Z,15.17
2022-10-03T11:18:32.241Z,15.25
2022-10-03T11:23:40.014Z,15.02
2022-10-03T11:29:40.862Z,14.78
2022-10-03T11:35:20.776Z,14.79
2022-10-03T11:40:57.863Z,14.98
2022-10-03T11:46:22.981Z,14.89
2022-10-03T11:51:51.541Z,14.85
2022-10-03T11:57:06.495Z,14.80
2022-10-03T12:02:14.661Z,14.83
2022-10-03T12:08:22.753Z,14.79
2022-10-03T12:13:39.435Z,14.74
2022-10-03T12:18:42.709Z,14.76
2022-10-03T12:23:55.902Z,14.80
2022-10-03T12:28:58.882Z,14.70
2022-10-03T12:34:37.728Z,14.76
2022-10-03T12:40:10.468Z,15.08
2022-10-03T12:45:12.126Z,15.16
2022-10-03T12:50:32.163Z,15.05
2022-10-03T12:55:38.226Z,14.89
2022-10-03T13:00:55.834Z,14.79
2022-10-03T13:06:19.371Z,14.71
2022-10-03T13:11:25.862Z,15.38
2022-10-03T13:16:43.655Z,15.60
2022-10-03T13:22:18.175Z,16.09
2022-10-03T13:27:33.092Z,15.78
2022-10-03T13:32:34.861Z,15.50
2022-10-03T13:37:59.485Z,15.34
2022-10-03T13:43:03.471Z,15.33
2022-10-03T13:48:11.228Z,15.71
2022-10-03T13:53:37.973Z,16.11
2022-10-03T13:58:39.779Z,16.20
2022-10-03T14:04:01.842Z,15.91
2022-10-03T14:09:31.410Z,16.06
2022-10-03T14:15:00.315Z,16.23
2022-10-03T14:20:10.946Z,16.24
2022-10-03T14:25:47.815Z,16.24
2022-10-03T14:31:05.981Z,16.44
2022-10-03T14:36:14.575Z,16.27
2022-10-03T14:41:23.628Z,16.18
2022-10-03T14:46:29.089Z,16.18
2022-10-03T14:51:30.802Z,16.52
2022-10-03T14:56:41.258Z,16.53
2022-10-03T15:01:54.813Z,16.51
2022-10-03T15:07:00.294Z,16.53
2022-10-03T15:12:08.318Z,16.60
2022-10-03T15:17:22.866Z,16.39
2022-10-03T15:22:35.701Z,16.44
2022-10-03T15:27:41.881Z,16.41
2022-10-03T15:32:47.203Z,16.18
2022-10-03T15:37:49.804Z,15.80
2022-10-03T15:43:02.986Z,15.46
2022-10-03T15:48:16.441Z,15.20
2022-10-03T15:53:36.937Z,15.10
2022-10-03T15:59:04.166Z,15.05
2022-10-03T16:04:21.333Z,15.08
2022-10-03T16:09:58.481Z,15.15
2022-10-03T16:15:34.168Z,15.37
2022-10-03T16:20:53.832Z,15.33
2022-10-03T16:26:00.318Z,15.27
2022-10-03T16:31:27.108Z,15.14
2022-10-03T16:36:32.416Z,15.00
2022-10-03T16:41:40.672Z,14.98
2022-10-03T16:46:45.028Z,14.95
2022-10-03T16:51:56.808Z,14.90
2022-10-03T16:57:00.939Z,14.89
2022-10-03T17:02:12.667Z,14.78
2022-10-03T17:07:17.981Z,14.48
2022-10-03T17:12:27.835Z,14.15
2022-10-03T17:17:39.417Z,13.87
2022-10-03T17:22:45.564Z,13.61
2022-10-03T17:27:50.359Z,13.45
2022-10-03T17:33:01.612Z,13.41
2022-10-03T17:38:48.817Z,13.41
2022-10-03T17:44:18.846Z,13.22
2022-10-03T17:49:55.224Z,13.21
2022-10-03T17:55:02.793Z,13.17
2022-10-03T18:00:17.861Z,12.92
2022-10-03T18:05:27.251Z,12.70
2022-10-03T18:10:34.367Z,12.60
2022-10-03T18:16:19.067Z,12.32
2022-10-03T18:21:32.584Z,12.27
2022-10-03T18:26:45.133Z,12.28
2022-10-03T18:31:55.467Z,12.09
2022-10-03T18:37:36.477Z,12.06
2022-10-03T18:42:39.263Z,12.06
2022-10-03T18:47:44.581Z,11.83
2022-10-03T18:52:52.626Z,11.74
2022-10-03T18:58:11.555Z,11.35
2022-10-03T19:03:16.600Z,11.08
2022-10-03T19:08:20.457Z,11.15
2022-10-03T19:13:43.840Z,11.26
2022-10-03T19:18:57.758Z,11.16
2022-10-03T19:24:13.047Z,10.94
2022-10-03T19:29:34.379Z,10.83
2022-10-03T19:34:43.506Z,10.54
2022-10-03T19:39:45.522Z,10.43
2022-10-03T19:44:47.385Z,10.46
2022-10-03T19:50:21.014Z,10.24
2022-10-03T19:55:37.107Z,10.23
2022-10-03T20:00:40.330Z,10.23
2022-10-03T20:05:56.051Z,10.17
2022-10-03T20:11:06.182Z,10.19
2022-10-03T20:16:15.312Z,10.15
2022-10-03T20:21:25.994Z,10.17
2022-10-03T20:26:45.297Z,10.12
2022-10-03T20:31:47.813Z,9.96
2022-10-03T20:36:55.403Z,9.77
2022-10-03T20:42:10.015Z,9.61
2022-10-03T20:47:42.822Z,9.64
2022-10-03T20:52:51.677Z,9.52
2022-10-03T20:58:05.735Z,9.55
2022-10-03T21:03:15.600Z,9.52
2022-10-03T21:08:40.299Z,9.30
2022-10-03T21:13:52.350Z,9.27
2022-10-03T21:19:01.552Z,9.28
2022-10-03T21:24:03.997Z,9.20
2022-10-03T21:29:23.990Z,9.01
2022-10-03T21:34:42.917Z,9.11
2022-10-03T21:40:27.975Z,9.21
2022-10-03T21:45:37.740Z,9.06
2022-10-03T21:51:17.942Z,8.84
2022-10-03T21:56:34.541Z,8.77
2022-10-03T22:01:48.300Z,8.77
2022-10-03T22:06:57.742Z,8.84
2022-10-03T22:12:02.668Z,8.83
2022-10-03T22:17:22.921Z,8.61
2022-10-03T22:22:24.583Z,8.52
2022-10-03T22:28:01.265Z,8.62
2022-10-03T22:33:21.415Z,8.68
2022-10-03T22:38:36.251Z,8.67
2022-10-03T22:43:38.772Z,8.52
2022-10-03T22:48:50.090Z,8.47
2022-10-03T22:53:58.147Z,8.39
2022-10-03T22:59:02.552Z,8.26
2022-10-03T23:04:07.919Z,8.08
2022-10-03T23:09:23.844Z,8.18
2022-10-03T23:14:30.654Z,8.19
2022-10-03T23:20:05.350Z,8.29
2022-10-03T23:25:17.444Z,8.30
2022-10-03T23:30:20.027Z,8.31
2022-10-03T23:35:31.030Z,8.20
2022-10-03T23:40:44.851Z,7.98
2022-10-03T23:45:49.421Z,7.95
2022-10-03T23:51:00.430Z,7.92
2022-10-03T23:56:04.567Z,7.95
